Pagina principale
METAR-TAF:

METAR-TAF

Aeroporti :

Cognac, Francia

latitudine: 45-40N, longitudine: 000-19W, altezza: 30 m

Osservazione

Il bollettino è stato emesso 21 minuti fa, alle 23:30 UTC
Vento calmo
Temperature 16°C
Umidità 77%
Pressione 1019 hPa
Visibilità 10 km o più
nessuna nube inferiore a 1500 m e nessun cumulonembo

METAR: LFBG 162330Z AUTO 00000KT CAVOK 16/12 Q1019

Ora: 01:51 (23:51 UTC)


TAF: mancante

Osservazioni e previsioni meteorologiche di più di 4000 aeroporti (messaggi METAR e TAF).

Le stazioni disponibili sono rappresentate dai dischi gialli e rossi sulla carta.

Puntare il mouse per vedere il nome della stazione.

Clicca sopra per visualizzare le osservazioni e previsioni meteorologiche.

Per cambiare la mappa : fare clic sui pulsanti verdi con una croce nera per ingrandire, il pulsante verde con un trattino per diminuire, o sulla freccia verde per le mappe adiacenti.


METAR-TAF: